KFFZ

Details ICAO KFFZ (FFZ)
Name FALCON FLD
Region United States
Timezone America/Phoenix (UTC-7.0)
Plans Departing 52
Arriving 29
Stats Elevation 1,394 ft / 425 m (AMSL)
Location 33.460932° -111.728454°
Runways 2
Magnetic Variation 10.191° E
Sunrise 2018-05-24 12:22:36 UTC / 2018-05-24 05:22:36 Local
Sunset 2018-05-25 02:27:50 UTC / 2018-05-24 19:27:50 Local
Advertisement - Login to hide

Runways

ID Width Length Bearing (true) Bearing (mag) Surface Threshold Offset Overrun Length
04L 75 ft / 23 m 3,798 ft / 1,158 m 51.02° 40.83° Asphalt 0 ft / 0 m 0 ft / 0 m
04R 100 ft / 30 m 5,101 ft / 1,555 m 51.04° 40.85° Asphalt 0 ft / 0 m 0 ft / 0 m
22L 100 ft / 30 m 5,101 ft / 1,555 m 231.04° 220.85° Asphalt 0 ft / 0 m 0 ft / 0 m
22R 75 ft / 23 m 3,798 ft / 1,158 m 231.03° 220.84° Asphalt 0 ft / 0 m 0 ft / 0 m

Map

Weather


0- 5 10 15 20 25 30 35+ Temperature / ° C

Clouds and Precipitation
Forecast for 2018-05-24 18:00 UTC. Updated an hour ago

Ground ~20,000 ft ~40,000 ft Winds

METAR

KFFZ 241748Z 24008KT 30SM SKC 31/02 A3000

TAF

Not found

Frequencies

Recorded 118.25 MHz ATIS
Unicom 122.95 MHz UNICOM
Tower 124.60 MHz TWR
Unicom 124.60 MHz CTAF
Ground 121.30 MHz GND
Approach 120.70 MHz PHOENIX APP/DEP
Warning: Do not use this data for real-world aviation or navigation. No guarantee of current accuracy is given.